createdAt,value
2018-11-12T00:01:08.401Z,1.10
2018-11-12T00:03:37.192Z,1.23
2018-11-12T00:06:06.151Z,1.70
2018-11-12T00:08:34.686Z,1.30
2018-11-12T00:11:03.104Z,1.00
2018-11-12T00:13:31.502Z,1.80
2018-11-12T00:15:59.922Z,1.90
2018-11-12T00:18:28.597Z,1.80
2018-11-12T00:20:57.195Z,1.40
2018-11-12T00:23:25.651Z,1.40
2018-11-12T00:25:57.049Z,2.60
2018-11-12T00:28:25.608Z,1.73
2018-11-12T00:30:54.185Z,1.90
2018-11-12T00:33:22.703Z,1.60
2018-11-12T00:35:51.424Z,1.90
2018-11-12T00:38:19.905Z,1.50
2018-11-12T00:40:48.423Z,1.87
2018-11-12T00:43:16.875Z,2.10
2018-11-12T00:45:45.382Z,2.00
2018-11-12T00:48:13.968Z,2.00
2018-11-12T00:50:42.623Z,2.37
2018-11-12T00:53:11.127Z,2.00
2018-11-12T00:55:39.681Z,1.57
2018-11-12T00:58:08.314Z,1.70
2018-11-12T01:00:36.796Z,2.40
2018-11-12T01:03:05.903Z,1.80
2018-11-12T01:05:34.433Z,2.00
2018-11-12T01:08:02.841Z,1.97
2018-11-12T01:10:37.987Z,1.80
2018-11-12T01:13:06.524Z,1.60
2018-11-12T01:15:35.020Z,1.80
2018-11-12T01:18:03.481Z,1.83
2018-11-12T01:20:31.984Z,1.77
2018-11-12T01:23:00.556Z,1.80
2018-11-12T01:25:29.098Z,1.60
2018-11-12T01:27:57.513Z,1.65
2018-11-12T01:30:25.933Z,2.08
2018-11-12T01:32:54.389Z,1.67
2018-11-12T01:35:23.028Z,1.33
2018-11-12T01:37:51.623Z,1.60
2018-11-12T01:40:20.318Z,1.67
2018-11-12T01:42:48.777Z,1.73
2018-11-12T01:45:18.776Z,2.00
2018-11-12T01:47:48.593Z,1.50
2018-11-12T01:50:22.650Z,1.30
2018-11-12T01:52:51.227Z,1.37
2018-11-12T01:55:20.087Z,1.63
2018-11-12T01:57:48.588Z,1.70
2018-11-12T02:00:21.561Z,1.80
2018-11-12T02:02:51.219Z,1.53
2018-11-12T02:05:20.039Z,1.50
2018-11-12T02:07:48.674Z,1.77
2018-11-12T02:10:18.352Z,1.37
2018-11-12T02:12:46.929Z,1.37
2018-11-12T02:15:18.167Z,1.40
2018-11-12T02:17:47.285Z,1.53
2018-11-12T02:20:17.126Z,1.60
2018-11-12T02:22:46.682Z,1.83
2018-11-12T02:25:15.798Z,1.83
2018-11-12T02:27:44.173Z,1.50
2018-11-12T02:30:14.892Z,1.42
2018-11-12T02:32:43.533Z,1.40
2018-11-12T02:35:12.084Z,1.60
2018-11-12T02:37:41.014Z,1.30
2018-11-12T02:40:11.880Z,1.30
2018-11-12T02:42:40.800Z,1.40
2018-11-12T02:45:10.477Z,1.30
2018-11-12T02:47:39.294Z,1.40
2018-11-12T02:50:09.037Z,1.23
2018-11-12T02:52:37.489Z,0.90
2018-11-12T02:55:07.607Z,1.13
2018-11-12T02:57:36.174Z,1.00
2018-11-12T03:00:07.784Z,0.93
2018-11-12T03:02:36.159Z,1.03
2018-11-12T03:05:05.013Z,1.20
2018-11-12T03:07:33.498Z,0.80
2018-11-12T03:10:02.031Z,0.87
2018-11-12T03:12:30.504Z,0.95
2018-11-12T03:14:58.987Z,1.00
2018-11-12T03:17:27.505Z,0.80
2018-11-12T03:19:55.929Z,1.00
2018-11-12T03:22:24.441Z,0.80
2018-11-12T03:24:52.814Z,1.20
2018-11-12T03:27:21.419Z,1.00
2018-11-12T03:29:49.954Z,1.43
2018-11-12T03:32:18.568Z,0.90
2018-11-12T03:34:47.032Z,1.30
2018-11-12T03:37:15.537Z,1.20
2018-11-12T03:39:44.041Z,1.20
2018-11-12T03:42:12.495Z,0.80
2018-11-12T03:44:41.021Z,1.03
2018-11-12T03:47:09.498Z,1.00
2018-11-12T03:49:43.491Z,0.90
2018-11-12T03:52:11.914Z,1.20
2018-11-12T03:54:40.611Z,1.07
2018-11-12T03:57:09.100Z,0.90
2018-11-12T03:59:37.768Z,1.20
2018-11-12T04:02:06.646Z,1.30
2018-11-12T04:04:35.144Z,1.20
2018-11-12T04:07:03.581Z,0.90
2018-11-12T04:09:32.202Z,1.70
2018-11-12T04:12:00.676Z,1.50
2018-11-12T04:14:29.172Z,1.63
2018-11-12T04:16:57.612Z,1.40
2018-11-12T04:19:26.095Z,1.30
2018-11-12T04:21:54.529Z,1.67
2018-11-12T04:24:23.031Z,1.40
2018-11-12T04:26:51.544Z,1.33
2018-11-12T04:29:20.164Z,1.17
2018-11-12T04:31:48.882Z,1.22
2018-11-12T04:34:17.242Z,1.30
2018-11-12T04:36:53.788Z,1.70
2018-11-12T04:39:22.058Z,1.40
2018-11-12T04:41:50.608Z,1.30
2018-11-12T04:44:19.236Z,1.40
2018-11-12T04:46:47.773Z,1.40
2018-11-12T04:49:16.284Z,1.10
2018-11-12T04:51:52.901Z,1.20
2018-11-12T04:54:21.245Z,1.10
2018-11-12T04:56:49.612Z,1.10
2018-11-12T04:59:18.136Z,1.20
2018-11-12T05:01:58.781Z,1.23
2018-11-12T05:04:27.283Z,1.80
2018-11-12T05:06:55.967Z,1.40
2018-11-12T05:09:32.059Z,1.80
2018-11-12T05:12:00.325Z,1.80
2018-11-12T05:14:29.043Z,1.90
2018-11-12T05:16:58.027Z,1.30
2018-11-12T05:19:26.813Z,1.57
2018-11-12T05:21:55.859Z,2.50
2018-11-12T05:24:24.136Z,2.70
2018-11-12T05:26:52.572Z,3.03
2018-11-12T05:29:21.094Z,2.87
2018-11-12T05:31:49.340Z,2.25
2018-11-12T05:34:17.609Z,2.47
2018-11-12T05:36:46.393Z,1.70
2018-11-12T05:39:14.678Z,1.63
2018-11-12T05:41:42.894Z,1.97
2018-11-12T05:44:11.174Z,1.53
2018-11-12T05:46:39.495Z,1.53
2018-11-12T05:49:07.794Z,2.10
2018-11-12T05:51:36.097Z,2.45
2018-11-12T05:54:04.598Z,1.80
2018-11-12T05:56:33.253Z,1.70
2018-11-12T05:59:02.178Z,1.90
2018-11-12T06:01:30.870Z,1.87
2018-11-12T06:03:59.687Z,2.70
2018-11-12T06:06:28.375Z,1.80
2018-11-12T06:08:57.202Z,2.40
2018-11-12T06:11:25.978Z,1.85
2018-11-12T06:13:54.853Z,1.70
2018-11-12T06:16:23.437Z,2.37
2018-11-12T06:18:52.330Z,2.42
2018-11-12T06:21:21.181Z,2.30
2018-11-12T06:23:49.987Z,1.90
2018-11-12T06:26:18.888Z,2.55
2018-11-12T06:28:47.165Z,3.52
2018-11-12T06:31:15.528Z,2.37
2018-11-12T06:33:43.774Z,2.47
2018-11-12T06:36:12.069Z,2.65
2018-11-12T06:38:40.336Z,2.50
2018-11-12T06:41:08.731Z,2.52
2018-11-12T06:43:37.040Z,2.70
2018-11-12T06:46:05.880Z,3.20
2018-11-12T06:48:34.289Z,2.80
2018-11-12T06:51:02.562Z,3.02
2018-11-12T06:53:30.868Z,3.08
2018-11-12T06:55:59.112Z,3.45
2018-11-12T06:58:27.424Z,2.62
2018-11-12T07:00:55.761Z,2.60
2018-11-12T07:03:24.011Z,3.77
2018-11-12T07:05:52.267Z,3.00
2018-11-12T07:08:27.579Z,2.80
2018-11-12T07:10:55.894Z,3.10
2018-11-12T07:13:24.271Z,3.12
2018-11-12T07:15:52.459Z,2.85
2018-11-12T07:18:20.675Z,3.45
2018-11-12T07:20:48.996Z,2.72
2018-11-12T07:23:17.259Z,2.83
2018-11-12T07:25:45.532Z,3.03
2018-11-12T07:28:13.784Z,2.63
2018-11-12T07:30:42.054Z,3.13
2018-11-12T07:33:10.203Z,2.40
2018-11-12T07:35:38.452Z,2.87
2018-11-12T07:38:06.730Z,2.85
2018-11-12T07:40:34.983Z,2.60
2018-11-12T07:43:03.316Z,2.90
2018-11-12T07:45:31.538Z,3.20
2018-11-12T07:48:00.003Z,2.90
2018-11-12T07:50:29.635Z,3.50
2018-11-12T07:52:57.917Z,3.00
2018-11-12T07:55:27.285Z,3.20
2018-11-12T07:57:56.297Z,3.90
2018-11-12T08:00:27.927Z,3.73
2018-11-12T08:03:01.743Z,3.40
2018-11-12T08:05:29.930Z,2.60
2018-11-12T08:07:58.131Z,2.93
2018-11-12T08:10:26.427Z,2.80
2018-11-12T08:12:54.800Z,3.20
2018-11-12T08:15:23.092Z,3.60
2018-11-12T08:17:51.348Z,2.73
2018-11-12T08:20:21.099Z,3.20
2018-11-12T08:22:50.269Z,2.53
2018-11-12T08:25:18.556Z,2.90
2018-11-12T08:27:47.403Z,3.17
2018-11-12T08:30:21.069Z,3.33
2018-11-12T08:32:50.499Z,3.87
2018-11-12T08:35:18.804Z,3.60
2018-11-12T08:37:47.714Z,3.67
2018-11-12T08:40:17.533Z,4.27
2018-11-12T08:42:45.815Z,4.03
2018-11-12T08:45:14.273Z,4.33
2018-11-12T08:47:43.886Z,5.87
2018-11-12T08:50:14.121Z,4.63
2018-11-12T08:52:43.621Z,5.17
2018-11-12T08:55:14.566Z,4.60
2018-11-12T08:57:44.487Z,4.53
2018-11-12T09:00:13.251Z,4.33
2018-11-12T09:02:42.262Z,4.43
2018-11-12T09:05:11.955Z,4.30
2018-11-12T09:07:41.288Z,3.50
2018-11-12T09:10:14.814Z,2.97
2018-11-12T09:12:43.549Z,3.40
2018-11-12T09:15:12.219Z,2.90
2018-11-12T09:17:41.319Z,2.70
2018-11-12T09:20:11.640Z,2.70
2018-11-12T09:22:39.935Z,2.23
2018-11-12T09:25:18.635Z,3.30
2018-11-12T09:27:47.020Z,2.83
2018-11-12T09:30:17.534Z,2.23
2018-11-12T09:32:46.212Z,2.40
2018-11-12T09:35:17.395Z,3.00
2018-11-12T09:37:46.857Z,2.37
2018-11-12T09:40:21.655Z,2.90
2018-11-12T09:42:50.052Z,3.20
2018-11-12T09:45:18.295Z,2.40
2018-11-12T09:47:46.916Z,3.23
2018-11-12T09:50:16.366Z,3.20
2018-11-12T09:52:45.932Z,2.20
2018-11-12T09:55:14.926Z,2.70
2018-11-12T09:57:44.326Z,2.27
2018-11-12T10:00:14.378Z,2.80
2018-11-12T10:02:44.881Z,2.77
2018-11-12T10:05:13.416Z,2.50
2018-11-12T10:07:42.449Z,2.80
2018-11-12T10:10:54.198Z,2.80
2018-11-12T10:13:26.212Z,3.40
2018-11-12T10:15:53.187Z,2.70
2018-11-12T10:18:19.344Z,3.50
2018-11-12T10:20:50.732Z,3.70
2018-11-12T10:23:19.541Z,6.33
2018-11-12T10:25:47.775Z,4.20
2018-11-12T10:28:16.667Z,3.40
2018-11-12T10:30:52.626Z,3.70
2018-11-12T10:33:20.912Z,3.20
2018-11-12T10:35:49.471Z,3.80
2018-11-12T10:38:17.743Z,3.70
2018-11-12T10:40:46.027Z,3.90
2018-11-12T10:43:14.339Z,3.70
2018-11-12T10:45:42.560Z,3.97
2018-11-12T10:48:10.852Z,4.53
2018-11-12T10:50:39.124Z,6.00
2018-11-12T10:53:07.346Z,6.77
2018-11-12T10:55:41.371Z,6.53
2018-11-12T10:58:09.544Z,6.57
2018-11-12T11:00:43.225Z,8.13
2018-11-12T11:03:17.884Z,6.37
2018-11-12T11:05:50.753Z,7.20
2018-11-12T11:08:19.067Z,6.93
2018-11-12T11:10:47.269Z,8.10
2018-11-12T11:13:15.513Z,7.70
2018-11-12T11:15:43.774Z,6.60
2018-11-12T11:18:12.063Z,7.87
2018-11-12T11:20:47.332Z,8.23
2018-11-12T11:23:15.551Z,8.30
2018-11-12T11:25:49.605Z,8.17
2018-11-12T11:28:17.885Z,8.03
2018-11-12T11:30:46.190Z,8.60
2018-11-12T11:33:14.474Z,8.47
2018-11-12T11:35:42.757Z,8.20
2018-11-12T11:38:17.714Z,9.00
2018-11-12T11:40:46.062Z,9.10
2018-11-12T11:43:14.269Z,8.10
2018-11-12T11:45:42.587Z,7.90
2018-11-12T11:48:10.985Z,9.13
2018-11-12T11:50:39.247Z,10.07
2018-11-12T11:53:07.436Z,10.07
2018-11-12T11:55:35.687Z,8.83
2018-11-12T11:58:03.984Z,10.13
2018-11-12T12:00:32.273Z,9.90
2018-11-12T12:03:00.657Z,9.70
2018-11-12T12:05:29.361Z,9.17
2018-11-12T12:07:58.163Z,10.10
2018-11-12T12:10:26.410Z,9.80
2018-11-12T12:12:54.653Z,10.40
2018-11-12T12:15:23.702Z,9.63
2018-11-12T12:17:51.945Z,9.90
2018-11-12T12:20:21.477Z,9.33
2018-11-12T12:22:49.699Z,9.83
2018-11-12T12:25:18.578Z,9.00
2018-11-12T12:27:47.329Z,10.40
2018-11-12T12:30:20.543Z,10.77
2018-11-12T12:32:55.426Z,10.23
2018-11-12T12:35:23.824Z,9.03
2018-11-12T12:37:52.181Z,8.20
2018-11-12T12:40:21.484Z,8.03
2018-11-12T12:42:49.738Z,8.37
2018-11-12T12:45:19.408Z,7.90
2018-11-12T12:47:48.148Z,9.00
2018-11-12T12:50:17.147Z,9.07
2018-11-12T12:52:45.423Z,10.07
2018-11-12T12:55:14.639Z,10.10
2018-11-12T12:57:49.877Z,9.47
2018-11-12T13:00:21.852Z,8.60
2018-11-12T13:02:50.140Z,8.93
2018-11-12T13:05:18.379Z,9.33
2018-11-12T13:07:46.645Z,9.40
2018-11-12T13:10:16.251Z,8.60
2018-11-12T13:12:44.555Z,9.13
2018-11-12T13:15:14.028Z,9.73
2018-11-12T13:17:42.916Z,10.50
2018-11-12T13:20:12.972Z,10.13
2018-11-12T13:22:41.633Z,10.37
2018-11-12T13:25:10.333Z,10.87
2018-11-12T13:27:38.881Z,9.70
2018-11-12T13:30:09.301Z,10.10
2018-11-12T13:32:37.994Z,9.87
2018-11-12T13:35:07.395Z,11.40
2018-11-12T13:37:35.913Z,11.77
2018-11-12T13:40:05.664Z,13.50
2018-11-12T13:42:33.948Z,15.03
2018-11-12T13:45:02.316Z,15.43
2018-11-12T13:47:30.593Z,17.60
2018-11-12T13:49:58.875Z,18.60
2018-11-12T13:52:27.152Z,18.37
2018-11-12T13:54:55.431Z,20.10
2018-11-12T13:57:23.708Z,21.20
2018-11-12T13:59:51.917Z,22.17
2018-11-12T14:02:20.209Z,21.80
2018-11-12T14:04:48.467Z,21.17
2018-11-12T14:07:16.888Z,22.87
2018-11-12T14:09:45.093Z,22.90
2018-11-12T14:12:13.280Z,19.83
2018-11-12T14:14:41.600Z,20.43
2018-11-12T14:17:09.857Z,20.87
2018-11-12T14:19:38.153Z,19.27
2018-11-12T14:22:06.441Z,19.30
2018-11-12T14:24:34.655Z,19.03
2018-11-12T14:27:02.975Z,19.90
2018-11-12T14:29:31.257Z,19.17
2018-11-12T14:31:59.532Z,19.67
2018-11-12T14:34:27.825Z,19.30
2018-11-12T14:36:56.149Z,19.60
2018-11-12T14:39:24.519Z,20.23
2018-11-12T14:41:59.185Z,21.77
2018-11-12T14:44:27.719Z,20.70
2018-11-12T14:46:56.051Z,20.03
2018-11-12T14:49:24.341Z,21.27
2018-11-12T14:51:52.638Z,21.13
2018-11-12T14:54:21.944Z,21.10
2018-11-12T14:56:50.211Z,19.90
2018-11-12T14:59:18.554Z,20.47
2018-11-12T15:01:46.904Z,19.77
2018-11-12T15:04:15.110Z,18.07
2018-11-12T15:06:43.381Z,16.47
2018-11-12T15:09:24.954Z,14.90
2018-11-12T15:11:53.223Z,15.20
2018-11-12T15:14:21.441Z,15.70
2018-11-12T15:16:49.707Z,14.30
2018-11-12T15:19:17.962Z,15.50
2018-11-12T15:21:46.332Z,12.40
2018-11-12T15:24:14.635Z,12.00
2018-11-12T15:26:42.982Z,11.63
2018-11-12T15:29:11.267Z,13.83
2018-11-12T15:31:39.523Z,11.50
2018-11-12T15:34:07.819Z,11.60
2018-11-12T15:36:36.128Z,13.40
2018-11-12T15:39:07.237Z,13.03
2018-11-12T15:41:35.533Z,13.83
2018-11-12T15:44:04.205Z,11.83
2018-11-12T15:46:53.535Z,11.70
2018-11-12T15:49:21.839Z,11.67
2018-11-12T15:51:50.115Z,12.43
2018-11-12T15:54:18.417Z,11.37
2018-11-12T15:56:46.733Z,11.83
2018-11-12T15:59:15.003Z,12.40
2018-11-12T16:01:43.401Z,11.77
2018-11-12T16:04:11.641Z,11.70
2018-11-12T16:06:40.905Z,11.90
2018-11-12T16:09:12.735Z,11.10
2018-11-12T16:11:41.945Z,12.60
2018-11-12T16:14:11.089Z,11.30
2018-11-12T16:16:40.109Z,12.50
2018-11-12T16:19:09.854Z,11.80
2018-11-12T16:21:38.975Z,13.40
2018-11-12T16:24:08.212Z,11.33
2018-11-12T16:26:37.422Z,12.40
2018-11-12T16:29:06.313Z,12.53
2018-11-12T16:31:35.046Z,13.28
2018-11-12T16:34:04.147Z,14.03
2018-11-12T16:36:32.868Z,14.17
2018-11-12T16:39:01.597Z,14.37
2018-11-12T16:41:30.594Z,13.47
2018-11-12T16:43:59.132Z,13.07
2018-11-12T16:46:38.023Z,14.80
2018-11-12T16:49:06.727Z,14.27
2018-11-12T16:51:35.786Z,14.27
2018-11-12T16:54:04.723Z,14.23
2018-11-12T16:56:33.520Z,14.30
2018-11-12T16:59:02.261Z,14.53
2018-11-12T17:01:30.988Z,13.30
2018-11-12T17:04:11.700Z,12.47
2018-11-12T17:06:40.832Z,12.40
2018-11-12T17:09:13.143Z,11.23
2018-11-12T17:11:42.044Z,12.00
2018-11-12T17:14:10.783Z,13.20
2018-11-12T17:16:39.879Z,13.10
2018-11-12T17:19:09.182Z,12.03
2018-11-12T17:21:38.356Z,12.37
2018-11-12T17:24:07.134Z,13.30
2018-11-12T17:26:35.953Z,12.67
2018-11-12T17:29:04.844Z,12.93
2018-11-12T17:31:40.430Z,13.73
2018-11-12T17:34:09.665Z,13.50
2018-11-12T17:36:38.862Z,13.83
2018-11-12T17:39:08.696Z,15.73
2018-11-12T17:41:37.778Z,17.07
2018-11-12T17:44:07.916Z,15.30
2018-11-12T17:46:36.718Z,14.00
2018-11-12T17:49:05.585Z,13.77
2018-11-12T17:51:34.629Z,15.93
2018-11-12T17:54:03.324Z,14.73
2018-11-12T17:56:32.254Z,16.93
2018-11-12T17:59:00.935Z,15.10
2018-11-12T18:01:29.849Z,13.50
2018-11-12T18:03:58.656Z,15.83
2018-11-12T18:06:27.544Z,16.87
2018-11-12T18:08:56.154Z,16.32
2018-11-12T18:11:25.249Z,17.80
2018-11-12T18:13:54.180Z,17.53
2018-11-12T18:16:23.211Z,16.33
2018-11-12T18:18:52.254Z,17.57
2018-11-12T18:21:21.143Z,18.65
2018-11-12T18:23:49.886Z,17.40
2018-11-12T18:26:18.576Z,16.63
2018-11-12T18:28:47.173Z,17.13
2018-11-12T18:31:16.232Z,17.03
2018-11-12T18:33:44.948Z,17.63
2018-11-12T18:36:13.605Z,16.47
2018-11-12T18:38:42.625Z,13.90
2018-11-12T18:41:11.347Z,14.73
2018-11-12T18:43:40.351Z,16.20
2018-11-12T18:46:08.975Z,14.63
2018-11-12T18:48:37.987Z,15.20
2018-11-12T18:51:06.756Z,14.03
2018-11-12T18:53:35.606Z,15.10
2018-11-12T18:56:05.359Z,15.13
2018-11-12T18:58:34.246Z,16.67
2018-11-12T19:01:03.098Z,14.43
2018-11-12T19:03:32.360Z,15.43
2018-11-12T19:06:01.455Z,28.67
2018-11-12T19:08:36.079Z,28.40
2018-11-12T19:11:05.222Z,18.83
2018-11-12T19:13:33.906Z,18.27
2018-11-12T19:16:03.167Z,15.83
2018-11-12T19:18:32.232Z,16.20
2018-11-12T19:21:01.413Z,15.73
2018-11-12T19:23:30.248Z,14.87
2018-11-12T19:26:00.351Z,14.93
2018-11-12T19:28:29.433Z,14.63
2018-11-12T19:30:58.322Z,14.47
2018-11-12T19:33:27.188Z,16.33
2018-11-12T19:35:55.831Z,15.40
2018-11-12T19:38:24.723Z,15.97
2018-11-12T19:40:53.794Z,62.30
2018-11-12T19:43:22.575Z,21.73
2018-11-12T19:45:51.536Z,18.03
2018-11-12T19:48:20.455Z,17.95
2018-11-12T19:50:49.580Z,18.43
2018-11-12T19:53:18.469Z,18.70
2018-11-12T19:55:47.329Z,18.03
2018-11-12T19:58:16.458Z,16.63
2018-11-12T20:00:45.523Z,18.00
2018-11-12T20:03:14.542Z,19.47
2018-11-12T20:05:43.431Z,18.33
2018-11-12T20:08:12.456Z,18.80
2018-11-12T20:10:41.429Z,17.97
2018-11-12T20:13:10.373Z,18.23
2018-11-12T20:15:40.067Z,18.60
2018-11-12T20:18:08.699Z,19.80
2018-11-12T20:20:37.485Z,24.03
2018-11-12T20:23:06.517Z,22.27
2018-11-12T20:25:35.436Z,18.17
2018-11-12T20:28:04.099Z,22.00
2018-11-12T20:30:38.422Z,22.87
2018-11-12T20:33:07.469Z,24.20
2018-11-12T20:35:36.645Z,23.20
2018-11-12T20:38:05.650Z,23.90
2018-11-12T20:40:34.561Z,25.80
2018-11-12T20:43:03.640Z,25.43
2018-11-12T20:45:50.184Z,24.60
2018-11-12T20:48:20.081Z,25.57
2018-11-12T20:50:49.517Z,24.97
2018-11-12T20:53:18.305Z,24.95
2018-11-12T20:55:47.356Z,22.97
2018-11-12T20:58:16.288Z,23.57
2018-11-12T21:00:45.348Z,25.08
2018-11-12T21:03:13.987Z,27.70
2018-11-12T21:05:42.866Z,26.07
2018-11-12T21:08:11.687Z,23.57
2018-11-12T21:10:40.528Z,23.60
2018-11-12T21:13:09.542Z,23.98
2018-11-12T21:15:38.614Z,22.47
2018-11-12T21:18:07.547Z,23.00
2018-11-12T21:20:36.422Z,22.67
2018-11-12T21:23:05.830Z,23.07
2018-11-12T21:25:34.595Z,23.23
2018-11-12T21:28:03.645Z,23.30
2018-11-12T21:30:32.810Z,23.37
2018-11-12T21:33:04.741Z,21.63
2018-11-12T21:35:33.804Z,23.47
2018-11-12T21:38:10.187Z,24.53
2018-11-12T21:40:39.026Z,24.27
2018-11-12T21:43:08.138Z,23.30
2018-11-12T21:45:37.489Z,23.10
2018-11-12T21:48:06.987Z,25.08
2018-11-12T21:50:36.258Z,23.10
2018-11-12T21:53:05.936Z,24.00
2018-11-12T21:55:35.240Z,23.70
2018-11-12T22:00:37.691Z,21.97
2018-11-12T22:03:13.589Z,22.30
2018-11-12T22:05:42.430Z,21.53
2018-11-12T22:08:11.427Z,23.30
2018-11-12T22:10:40.349Z,20.60
2018-11-12T22:13:10.023Z,22.90
2018-11-12T22:15:39.481Z,23.05
2018-11-12T22:18:07.861Z,21.77
2018-11-12T22:20:36.833Z,22.07
2018-11-12T22:23:06.373Z,22.93
2018-11-12T22:25:41.164Z,23.40
2018-11-12T22:28:10.136Z,22.53
2018-11-12T22:30:39.149Z,21.57
2018-11-12T22:33:08.139Z,23.30
2018-11-12T22:35:36.619Z,21.95
2018-11-12T22:38:05.699Z,23.55
2018-11-12T22:40:34.075Z,23.42
2018-11-12T22:43:03.025Z,24.60
2018-11-12T22:45:31.415Z,23.15
2018-11-12T22:48:00.557Z,22.60
2018-11-12T22:50:29.355Z,23.62
2018-11-12T22:52:58.130Z,23.30
2018-11-12T22:55:27.102Z,23.90
2018-11-12T22:57:55.911Z,22.70
2018-11-12T23:00:31.287Z,23.70
2018-11-12T23:03:00.511Z,25.00
2018-11-12T23:05:34.936Z,25.40
2018-11-12T23:08:03.923Z,25.10
2018-11-12T23:10:32.711Z,25.15
2018-11-12T23:13:01.540Z,23.73
2018-11-12T23:15:30.143Z,27.25
2018-11-12T23:17:59.114Z,28.02
2018-11-12T23:20:28.477Z,26.03
2018-11-12T23:22:57.580Z,28.40
2018-11-12T23:25:26.505Z,29.48
2018-11-12T23:28:01.777Z,27.90
2018-11-12T23:30:30.156Z,25.85
2018-11-12T23:32:59.289Z,28.87
2018-11-12T23:35:27.672Z,28.92
2018-11-12T23:37:56.870Z,31.02
2018-11-12T23:40:25.416Z,30.08
2018-11-12T23:42:54.651Z,27.55
2018-11-12T23:45:23.721Z,30.12
2018-11-12T23:47:53.259Z,28.60
2018-11-12T23:50:23.170Z,29.05
2018-11-12T23:52:53.701Z,28.65
2018-11-12T23:55:23.104Z,29.82
2018-11-12T23:57:52.712Z,30.77
